createdAt,value
2022-08-29T00:00:17.736Z,16.77
2022-08-29T00:02:27.550Z,16.38
2022-08-29T00:04:34.814Z,15.10
2022-08-29T00:06:42.286Z,15.25
2022-08-29T00:08:49.571Z,15.63
2022-08-29T00:10:56.911Z,17.10
2022-08-29T00:13:03.793Z,16.08
2022-08-29T00:15:14.091Z,15.75
2022-08-29T00:17:21.167Z,16.67
2022-08-29T00:19:30.036Z,16.92
2022-08-29T00:21:37.026Z,17.23
2022-08-29T00:23:44.143Z,18.50
2022-08-29T00:25:51.634Z,20.20
2022-08-29T00:27:59.018Z,18.02
2022-08-29T00:30:07.943Z,19.35
2022-08-29T00:32:14.927Z,19.88
2022-08-29T00:34:21.997Z,18.67
2022-08-29T00:36:30.932Z,17.73
2022-08-29T00:38:38.717Z,16.63
2022-08-29T00:40:52.181Z,14.85
2022-08-29T00:42:59.584Z,14.80
2022-08-29T00:45:07.800Z,12.93
2022-08-29T00:47:17.584Z,12.18
2022-08-29T00:49:33.777Z,12.90
2022-08-29T00:51:44.189Z,12.57
2022-08-29T00:53:54.022Z,12.77
2022-08-29T00:56:02.541Z,12.60
2022-08-29T00:58:13.696Z,13.25
2022-08-29T01:00:22.281Z,11.65
2022-08-29T01:02:29.619Z,11.52
2022-08-29T01:04:37.165Z,10.45
2022-08-29T01:06:46.340Z,10.20
2022-08-29T01:08:57.627Z,10.73
2022-08-29T01:11:23.385Z,10.80
2022-08-29T01:13:37.826Z,9.45
2022-08-29T01:15:47.729Z,9.95
2022-08-29T01:17:55.318Z,8.40
2022-08-29T01:20:06.747Z,7.15
2022-08-29T01:22:24.114Z,6.57
2022-08-29T01:24:41.590Z,6.57
2022-08-29T01:26:50.616Z,6.78
2022-08-29T01:28:57.901Z,7.10
2022-08-29T01:31:07.220Z,5.95
2022-08-29T01:33:14.833Z,6.10
2022-08-29T01:35:21.862Z,5.57
2022-08-29T01:37:39.281Z,5.60
2022-08-29T01:39:49.638Z,6.68
2022-08-29T01:41:58.094Z,6.40
2022-08-29T01:44:11.209Z,6.78
2022-08-29T01:46:20.501Z,6.32
2022-08-29T01:48:27.725Z,6.40
2022-08-29T01:50:35.057Z,6.25
2022-08-29T01:52:42.498Z,6.32
2022-08-29T01:54:51.573Z,6.30
2022-08-29T01:56:58.971Z,5.82
2022-08-29T01:59:08.753Z,4.28
2022-08-29T02:01:18.532Z,3.60
2022-08-29T02:03:28.544Z,3.50
2022-08-29T02:05:36.237Z,3.17
2022-08-29T02:07:43.581Z,2.88
2022-08-29T02:09:52.402Z,2.45
2022-08-29T02:12:01.326Z,2.15
2022-08-29T02:14:16.154Z,2.38
2022-08-29T02:16:28.686Z,1.58
2022-08-29T02:18:35.863Z,2.10
2022-08-29T02:20:43.464Z,1.90
2022-08-29T02:22:50.587Z,1.45
2022-08-29T02:24:59.570Z,1.92
2022-08-29T02:27:06.546Z,1.60
2022-08-29T02:29:16.694Z,1.73
2022-08-29T02:31:25.157Z,1.88
2022-08-29T02:33:32.443Z,1.40
2022-08-29T02:35:42.838Z,1.65
2022-08-29T02:37:50.336Z,1.88
2022-08-29T02:39:59.603Z,1.70
2022-08-29T02:42:07.198Z,1.45
2022-08-29T02:44:14.994Z,1.70
2022-08-29T02:46:23.806Z,1.73
2022-08-29T02:48:32.334Z,1.65
2022-08-29T02:50:39.879Z,1.50
2022-08-29T02:52:48.237Z,1.40
2022-08-29T02:54:55.363Z,1.52
2022-08-29T02:57:04.393Z,1.63
2022-08-29T02:59:11.472Z,1.70
2022-08-29T03:01:19.064Z,1.52
2022-08-29T03:03:26.042Z,1.73
2022-08-29T03:05:36.128Z,2.08
2022-08-29T03:07:43.961Z,2.17
2022-08-29T03:09:53.002Z,2.03
2022-08-29T03:12:00.693Z,1.77
2022-08-29T03:14:09.937Z,2.00
2022-08-29T03:16:17.455Z,2.55
2022-08-29T03:18:24.645Z,1.92
2022-08-29T03:20:32.148Z,2.55
2022-08-29T03:22:39.930Z,2.08
2022-08-29T03:24:47.375Z,2.20
2022-08-29T03:26:54.598Z,2.70
2022-08-29T03:29:04.342Z,2.58
2022-08-29T03:31:13.423Z,2.35
2022-08-29T03:33:21.471Z,2.65
2022-08-29T03:35:28.861Z,2.65
2022-08-29T03:37:36.144Z,2.10
2022-08-29T03:39:43.526Z,2.30
2022-08-29T03:41:51.431Z,2.65
2022-08-29T03:43:59.950Z,3.00
2022-08-29T03:46:07.364Z,3.08
2022-08-29T03:48:16.517Z,3.30
2022-08-29T03:50:25.539Z,2.95
2022-08-29T03:52:32.610Z,2.95
2022-08-29T03:54:40.210Z,2.78
2022-08-29T03:56:47.331Z,2.40
2022-08-29T03:58:54.713Z,2.40
2022-08-29T04:01:01.796Z,2.45
2022-08-29T04:03:09.105Z,2.22
2022-08-29T04:05:19.193Z,3.08
2022-08-29T04:07:26.116Z,3.05
2022-08-29T04:09:33.898Z,9.90
2022-08-29T04:11:41.084Z,11.60
2022-08-29T04:13:48.160Z,10.15
2022-08-29T04:15:55.720Z,6.40
2022-08-29T04:18:04.173Z,3.15
2022-08-29T04:20:19.699Z,2.47
2022-08-29T04:22:28.562Z,2.13
2022-08-29T04:24:36.572Z,1.95
2022-08-29T04:26:43.946Z,2.20
2022-08-29T04:28:51.130Z,2.00
2022-08-29T04:30:58.149Z,2.20
2022-08-29T04:33:05.595Z,2.05
2022-08-29T04:35:13.656Z,1.75
2022-08-29T04:37:22.363Z,1.77
2022-08-29T04:39:29.549Z,2.17
2022-08-29T04:41:37.290Z,2.22
2022-08-29T04:43:44.525Z,2.33
2022-08-29T04:45:58.721Z,2.00
2022-08-29T04:48:06.825Z,1.80
2022-08-29T04:50:17.128Z,2.28
2022-08-29T04:52:26.408Z,2.13
2022-08-29T04:54:33.343Z,2.10
2022-08-29T04:56:45.293Z,1.80
2022-08-29T04:58:54.614Z,2.20
2022-08-29T05:01:01.896Z,2.15
2022-08-29T05:03:09.087Z,1.95
2022-08-29T05:05:18.251Z,2.15
2022-08-29T05:07:28.466Z,2.35
2022-08-29T05:09:36.249Z,2.08
2022-08-29T05:11:43.949Z,2.20
2022-08-29T05:13:53.188Z,2.22
2022-08-29T05:16:00.517Z,2.22
2022-08-29T05:18:08.566Z,2.20
2022-08-29T05:20:16.460Z,2.00
2022-08-29T05:22:24.562Z,1.98
2022-08-29T05:24:38.302Z,2.50
2022-08-29T05:26:46.762Z,2.33
2022-08-29T05:28:53.841Z,1.85
2022-08-29T05:31:02.051Z,1.80
2022-08-29T05:33:09.739Z,1.75
2022-08-29T05:35:16.675Z,1.77
2022-08-29T05:37:24.362Z,1.88
2022-08-29T05:39:32.984Z,1.70
2022-08-29T05:41:40.360Z,2.15
2022-08-29T05:43:47.496Z,2.30
2022-08-29T05:46:03.219Z,2.30
2022-08-29T05:48:12.002Z,2.28
2022-08-29T05:50:19.179Z,2.45
2022-08-29T05:52:26.510Z,2.40
2022-08-29T05:54:37.736Z,2.40
2022-08-29T05:56:45.992Z,2.50
2022-08-29T05:58:53.021Z,2.40
2022-08-29T06:01:00.155Z,2.40
2022-08-29T06:03:09.954Z,2.30
2022-08-29T06:05:17.335Z,2.20
2022-08-29T06:07:24.566Z,2.20
2022-08-29T06:09:31.845Z,2.92
2022-08-29T06:11:40.425Z,2.55
2022-08-29T06:13:47.602Z,2.50
2022-08-29T06:15:55.013Z,2.72
2022-08-29T06:18:02.005Z,2.30
2022-08-29T06:20:11.555Z,2.70
2022-08-29T06:22:20.836Z,2.70
2022-08-29T06:24:27.798Z,2.55
2022-08-29T06:26:34.939Z,2.72
2022-08-29T06:28:46.520Z,2.50
2022-08-29T06:33:00.015Z,2.35
2022-08-29T06:35:07.396Z,3.00
2022-08-29T06:37:14.882Z,2.55
2022-08-29T06:39:23.091Z,2.80
2022-08-29T06:41:31.040Z,2.53
2022-08-29T06:43:39.460Z,2.70
2022-08-29T06:45:49.010Z,2.85
2022-08-29T06:47:56.025Z,2.40
2022-08-29T06:50:03.414Z,2.65
2022-08-29T06:52:10.436Z,2.88
2022-08-29T06:54:18.120Z,2.58
2022-08-29T06:56:25.104Z,3.20
2022-08-29T06:58:33.983Z,2.50
2022-08-29T07:00:46.156Z,2.83
2022-08-29T07:02:58.293Z,2.95
2022-08-29T07:05:05.194Z,2.60
2022-08-29T07:07:12.269Z,2.38
2022-08-29T07:09:19.501Z,3.10
2022-08-29T07:11:26.838Z,3.08
2022-08-29T07:13:35.624Z,3.42
2022-08-29T07:15:43.038Z,3.05
2022-08-29T07:17:50.485Z,3.00
2022-08-29T07:19:59.930Z,3.17
2022-08-29T07:22:08.841Z,3.10
2022-08-29T07:24:15.981Z,2.90
2022-08-29T07:26:25.918Z,3.10
2022-08-29T07:28:36.065Z,3.70
2022-08-29T07:30:45.633Z,3.30
2022-08-29T07:32:52.794Z,3.30
2022-08-29T07:35:01.672Z,3.13
2022-08-29T07:37:09.762Z,3.70
2022-08-29T07:39:19.452Z,3.00
2022-08-29T07:41:26.839Z,3.63
2022-08-29T07:43:34.330Z,3.88
2022-08-29T07:45:42.787Z,3.22
2022-08-29T07:47:52.118Z,3.07
2022-08-29T07:50:00.844Z,3.42
2022-08-29T07:52:08.178Z,3.30
2022-08-29T07:54:17.767Z,3.10
2022-08-29T07:56:27.456Z,3.25
2022-08-29T07:58:34.330Z,2.88
2022-08-29T08:00:41.823Z,2.92
2022-08-29T08:02:49.167Z,2.65
2022-08-29T08:04:56.791Z,2.70
2022-08-29T08:07:05.716Z,2.67
2022-08-29T08:09:21.296Z,2.38
2022-08-29T08:11:31.238Z,2.63
2022-08-29T08:13:38.985Z,2.80
2022-08-29T08:15:45.906Z,2.38
2022-08-29T08:17:55.813Z,2.50
2022-08-29T08:20:02.837Z,2.40
2022-08-29T08:22:11.960Z,2.78
2022-08-29T08:24:19.708Z,2.72
2022-08-29T08:26:27.199Z,2.45
2022-08-29T08:28:34.274Z,2.75
2022-08-29T08:30:41.854Z,2.75
2022-08-29T08:32:52.811Z,2.58
2022-08-29T08:35:01.606Z,3.10
2022-08-29T08:37:13.855Z,2.63
2022-08-29T08:39:26.821Z,2.78
2022-08-29T08:41:44.502Z,2.78
2022-08-29T08:43:54.495Z,3.33
2022-08-29T08:46:01.947Z,2.88
2022-08-29T08:48:11.320Z,1.30
2022-08-29T08:50:24.079Z,1.30
2022-08-29T08:52:39.660Z,1.50
2022-08-29T08:54:54.420Z,1.40
2022-08-29T08:57:09.840Z,1.10
2022-08-29T08:59:21.939Z,1.50
2022-08-29T09:01:32.778Z,1.48
2022-08-29T09:04:17.926Z,2.50
2022-08-29T09:06:47.644Z,1.55
2022-08-29T09:09:03.835Z,2.22
2022-08-29T09:11:17.410Z,1.85
2022-08-29T09:13:39.753Z,2.17
2022-08-29T09:15:48.569Z,2.05
2022-08-29T09:18:01.846Z,2.17
2022-08-29T09:20:12.974Z,2.25
2022-08-29T09:22:32.909Z,2.30
2022-08-29T09:24:50.062Z,2.40
2022-08-29T09:26:57.397Z,2.47
2022-08-29T09:29:04.377Z,2.20
2022-08-29T09:31:29.165Z,2.00
2022-08-29T09:33:45.211Z,1.85
2022-08-29T09:35:57.159Z,1.92
2022-08-29T09:38:06.897Z,3.55
2022-08-29T09:40:19.860Z,3.20
2022-08-29T09:42:27.408Z,6.05
2022-08-29T09:44:36.736Z,6.72
2022-08-29T09:46:43.915Z,4.40
2022-08-29T09:48:52.686Z,3.20
2022-08-29T09:51:14.763Z,3.03
2022-08-29T09:53:27.638Z,2.60
2022-08-29T09:55:38.803Z,3.88
2022-08-29T09:57:52.231Z,4.97
2022-08-29T10:00:15.699Z,3.53
2022-08-29T10:02:27.755Z,3.50
2022-08-29T10:04:43.375Z,4.15
2022-08-29T10:06:52.840Z,3.45
2022-08-29T10:09:03.467Z,3.50
2022-08-29T10:11:35.022Z,3.13
2022-08-29T10:13:48.965Z,3.55
2022-08-29T10:16:02.138Z,3.28
2022-08-29T10:18:29.805Z,3.03
2022-08-29T10:20:54.856Z,3.90
2022-08-29T10:23:08.835Z,2.90
2022-08-29T10:25:22.066Z,2.70
2022-08-29T10:27:43.019Z,2.60
2022-08-29T10:30:04.024Z,2.83
2022-08-29T10:32:18.016Z,2.20
2022-08-29T10:34:38.199Z,3.08
2022-08-29T10:36:50.247Z,3.47
2022-08-29T10:39:04.491Z,3.47
2022-08-29T10:41:25.702Z,3.58
2022-08-29T10:43:43.534Z,3.47
2022-08-29T10:46:04.106Z,3.50
2022-08-29T10:48:30.919Z,3.92
2022-08-29T10:50:45.277Z,3.85
2022-08-29T10:53:01.418Z,4.45
2022-08-29T10:55:15.464Z,4.10
2022-08-29T10:57:45.316Z,4.70
2022-08-29T11:00:02.090Z,4.75
2022-08-29T11:02:13.966Z,5.60
2022-08-29T11:04:25.740Z,9.63
2022-08-29T11:06:39.851Z,8.52
2022-08-29T11:08:54.005Z,10.07
2022-08-29T11:11:01.632Z,9.55
2022-08-29T11:13:16.138Z,9.02
2022-08-29T11:15:30.080Z,7.82
2022-08-29T11:17:42.944Z,7.78
2022-08-29T11:19:59.291Z,5.35
2022-08-29T11:22:13.192Z,4.13
2022-08-29T11:24:22.102Z,4.50
2022-08-29T11:26:41.170Z,3.80
2022-08-29T11:28:59.817Z,3.95
2022-08-29T11:31:16.059Z,4.45
2022-08-29T11:33:34.144Z,4.90
2022-08-29T11:35:55.672Z,5.90
2022-08-29T11:38:37.199Z,5.00
2022-08-29T11:43:33.703Z,5.43
2022-08-29T11:45:45.800Z,5.30
2022-08-29T11:48:06.205Z,5.70
2022-08-29T11:50:25.915Z,6.03
2022-08-29T11:52:34.640Z,5.78
2022-08-29T11:54:55.400Z,5.78
2022-08-29T11:57:34.976Z,4.50
2022-08-29T12:00:01.479Z,5.05
2022-08-29T12:02:45.664Z,5.97
2022-08-29T12:05:02.221Z,7.90
2022-08-29T12:07:09.799Z,6.45
2022-08-29T12:09:42.029Z,6.30
2022-08-29T12:12:24.527Z,7.13
2022-08-29T12:14:38.042Z,7.25
2022-08-29T12:16:54.097Z,6.72
2022-08-29T12:19:02.153Z,6.10
2022-08-29T12:21:52.951Z,5.35
2022-08-29T12:24:01.929Z,5.55
2022-08-29T12:26:29.433Z,4.78
2022-08-29T12:28:51.824Z,5.55
2022-08-29T12:31:28.328Z,6.07
2022-08-29T12:33:47.414Z,5.63
2022-08-29T12:36:19.520Z,5.65
2022-08-29T12:38:41.879Z,5.75
2022-08-29T12:41:04.961Z,5.57
2022-08-29T12:43:28.988Z,5.40
2022-08-29T12:45:38.221Z,5.43
2022-08-29T12:47:50.930Z,5.47
2022-08-29T12:50:02.005Z,5.53
2022-08-29T12:52:22.964Z,5.35
2022-08-29T12:54:35.821Z,5.82
2022-08-29T12:56:51.046Z,5.80
2022-08-29T12:59:01.043Z,5.28
2022-08-29T13:01:11.143Z,5.65
2022-08-29T13:03:23.953Z,4.88
2022-08-29T13:05:32.156Z,5.10
2022-08-29T13:07:39.133Z,5.43
2022-08-29T13:09:47.863Z,5.15
2022-08-29T13:12:11.008Z,4.70
2022-08-29T13:14:17.888Z,5.28
2022-08-29T13:16:31.839Z,5.25
2022-08-29T13:18:53.901Z,4.95
2022-08-29T13:21:15.472Z,5.53
2022-08-29T13:23:28.913Z,5.55
2022-08-29T13:25:38.591Z,6.28
2022-08-29T13:27:49.461Z,5.95
2022-08-29T13:30:03.914Z,6.60
2022-08-29T13:32:21.549Z,7.00
2022-08-29T13:34:28.973Z,7.00
2022-08-29T13:36:42.611Z,7.47
2022-08-29T13:38:50.149Z,7.68
2022-08-29T13:40:58.914Z,7.88
2022-08-29T13:43:09.481Z,7.75
2022-08-29T13:45:25.932Z,6.85
2022-08-29T13:47:42.841Z,7.00
2022-08-29T13:49:53.909Z,6.35
2022-08-29T13:52:01.498Z,7.07
2022-08-29T13:54:09.607Z,6.35
2022-08-29T13:56:31.519Z,6.45
2022-08-29T13:58:41.789Z,7.03
2022-08-29T14:00:49.021Z,7.90
2022-08-29T14:02:58.320Z,7.40
2022-08-29T14:05:05.377Z,7.50
2022-08-29T14:07:15.178Z,7.93
2022-08-29T14:09:28.863Z,7.60
2022-08-29T14:11:35.938Z,7.68
2022-08-29T14:13:45.165Z,8.20
2022-08-29T14:15:52.350Z,7.93
2022-08-29T14:17:59.634Z,8.13
2022-08-29T14:20:08.052Z,8.38
2022-08-29T14:22:15.679Z,7.88
2022-08-29T14:24:22.608Z,7.80
2022-08-29T14:26:36.346Z,8.20
2022-08-29T14:28:48.131Z,7.68
2022-08-29T14:30:55.578Z,7.57
2022-08-29T14:33:02.932Z,7.40
2022-08-29T14:35:12.289Z,7.45
2022-08-29T14:37:33.755Z,7.32
2022-08-29T14:39:41.193Z,8.13
2022-08-29T14:41:49.305Z,8.15
2022-08-29T14:43:58.475Z,7.40
2022-08-29T14:46:05.476Z,8.50
2022-08-29T14:48:12.633Z,8.73
2022-08-29T14:50:19.918Z,8.60
2022-08-29T14:52:27.404Z,8.00
2022-08-29T14:54:36.327Z,8.18
2022-08-29T14:56:48.861Z,8.60
2022-08-29T14:58:58.630Z,8.05
2022-08-29T15:01:06.312Z,8.70
2022-08-29T15:03:13.509Z,9.35
2022-08-29T15:05:21.401Z,8.70
2022-08-29T15:07:28.843Z,8.68
2022-08-29T15:09:36.026Z,9.10
2022-08-29T15:11:43.003Z,9.13
2022-08-29T15:13:50.078Z,8.27
2022-08-29T15:15:58.778Z,8.15
2022-08-29T15:18:07.000Z,8.15
2022-08-29T15:20:35.538Z,9.20
2022-08-29T15:22:43.427Z,8.82
2022-08-29T15:24:51.533Z,8.45
2022-08-29T15:26:58.723Z,8.82
2022-08-29T15:29:05.703Z,8.23
2022-08-29T15:31:14.833Z,7.80
2022-08-29T15:33:22.001Z,7.13
2022-08-29T15:35:29.389Z,6.72
2022-08-29T15:37:36.418Z,6.07
2022-08-29T15:39:44.780Z,6.25
2022-08-29T15:41:51.961Z,6.47
2022-08-29T15:43:58.777Z,6.15
2022-08-29T15:46:06.312Z,6.53
2022-08-29T15:48:15.156Z,6.03
2022-08-29T15:50:22.537Z,6.60
2022-08-29T15:52:31.144Z,6.28
2022-08-29T15:54:38.473Z,6.20
2022-08-29T15:56:45.968Z,7.00
2022-08-29T15:58:52.946Z,8.57
2022-08-29T16:01:00.027Z,8.23
2022-08-29T16:03:08.162Z,7.85
2022-08-29T16:05:17.000Z,7.65
2022-08-29T16:07:24.284Z,8.07
2022-08-29T16:09:35.914Z,7.35
2022-08-29T16:11:43.203Z,7.40
2022-08-29T16:13:52.869Z,7.65
2022-08-29T16:16:09.523Z,8.10
2022-08-29T16:18:17.123Z,7.72
2022-08-29T16:20:26.318Z,8.25
2022-08-29T16:22:34.990Z,8.82
2022-08-29T16:24:42.321Z,7.97
2022-08-29T16:26:49.856Z,8.05
2022-08-29T16:28:56.991Z,8.23
2022-08-29T16:31:05.957Z,11.00
2022-08-29T16:33:13.300Z,10.65
2022-08-29T16:35:20.883Z,12.85
2022-08-29T16:37:30.222Z,16.65
2022-08-29T16:39:37.507Z,18.83
2022-08-29T16:41:47.148Z,18.27
2022-08-29T16:43:56.321Z,17.25
2022-08-29T16:46:03.965Z,15.15
2022-08-29T16:48:17.529Z,15.60
2022-08-29T16:50:25.490Z,16.40
2022-08-29T16:52:34.313Z,14.30
2022-08-29T16:54:41.747Z,14.32
2022-08-29T16:56:48.932Z,13.10
2022-08-29T16:59:02.997Z,13.55
2022-08-29T17:01:10.187Z,12.85
2022-08-29T17:03:20.175Z,13.40
2022-08-29T17:05:28.407Z,13.25
2022-08-29T17:07:35.438Z,13.27
2022-08-29T17:09:40.476Z,14.27
2022-08-29T17:11:45.963Z,13.65
2022-08-29T17:13:51.093Z,13.85
2022-08-29T17:15:56.742Z,13.93
2022-08-29T17:18:03.618Z,14.65
2022-08-29T17:20:12.640Z,13.60
2022-08-29T17:22:20.179Z,13.40
2022-08-29T17:24:28.896Z,12.27
2022-08-29T17:26:36.337Z,12.52
2022-08-29T17:28:45.676Z,12.18
2022-08-29T17:30:52.994Z,11.20
2022-08-29T17:33:00.183Z,10.90
2022-08-29T17:35:07.780Z,11.23
2022-08-29T17:37:15.210Z,12.43
2022-08-29T17:39:22.277Z,11.05
2022-08-29T17:41:32.745Z,10.63
2022-08-29T17:43:40.239Z,10.90
2022-08-29T17:45:47.743Z,11.52
2022-08-29T17:47:54.852Z,11.05
2022-08-29T17:50:02.198Z,10.35
2022-08-29T17:52:09.180Z,10.68
2022-08-29T17:54:16.811Z,10.35
2022-08-29T17:56:29.265Z,11.13
2022-08-29T17:58:38.290Z,10.98
2022-08-29T18:00:45.167Z,10.68
2022-08-29T18:02:52.806Z,10.73
2022-08-29T18:04:59.895Z,10.55
2022-08-29T18:07:07.327Z,10.90
2022-08-29T18:09:14.668Z,10.18
2022-08-29T18:11:22.301Z,10.32
2022-08-29T18:13:29.381Z,10.82
2022-08-29T18:15:38.405Z,10.82
2022-08-29T18:17:46.366Z,10.68
2022-08-29T18:19:53.565Z,9.75
2022-08-29T18:22:00.772Z,10.00
2022-08-29T18:24:08.159Z,10.23
2022-08-29T18:26:16.468Z,10.57
2022-08-29T18:28:23.697Z,10.15
2022-08-29T18:30:31.546Z,10.93
2022-08-29T18:32:40.468Z,10.30
2022-08-29T18:34:47.908Z,10.80
2022-08-29T18:36:55.099Z,10.18
2022-08-29T18:39:02.731Z,9.50
2022-08-29T18:41:09.863Z,8.98
2022-08-29T18:43:17.299Z,8.98
2022-08-29T18:45:24.274Z,10.48
2022-08-29T18:47:31.869Z,10.90
2022-08-29T18:49:57.174Z,10.95
2022-08-29T18:52:04.355Z,10.45
2022-08-29T18:54:12.697Z,11.25
2022-08-29T18:56:21.697Z,11.02
2022-08-29T18:58:31.734Z,12.75
2022-08-29T19:00:39.901Z,13.75
2022-08-29T19:02:46.917Z,15.57
2022-08-29T19:04:56.569Z,15.70
2022-08-29T19:07:06.465Z,15.38
2022-08-29T19:09:13.636Z,16.33
2022-08-29T19:11:20.568Z,17.27
2022-08-29T19:13:27.648Z,17.98
2022-08-29T19:15:41.286Z,17.02
2022-08-29T19:17:48.970Z,16.77
2022-08-29T19:20:14.322Z,15.45
2022-08-29T19:22:21.863Z,13.85
2022-08-29T19:24:29.257Z,13.55
2022-08-29T19:26:39.143Z,14.55
2022-08-29T19:28:46.592Z,16.00
2022-08-29T19:30:53.763Z,13.48
2022-08-29T19:33:00.847Z,13.23
2022-08-29T19:35:12.121Z,11.27
2022-08-29T19:37:19.162Z,10.75
2022-08-29T19:39:26.137Z,11.15
2022-08-29T19:41:38.770Z,10.63
2022-08-29T19:43:46.273Z,10.85
2022-08-29T19:45:53.733Z,11.23
2022-08-29T19:48:02.749Z,12.23
2022-08-29T19:50:14.987Z,11.30
2022-08-29T19:52:22.272Z,11.35
2022-08-29T19:54:31.398Z,10.98
2022-08-29T19:56:39.099Z,10.55
2022-08-29T19:58:46.688Z,10.63
2022-08-29T20:00:56.551Z,10.68
2022-08-29T20:03:03.667Z,10.65
2022-08-29T20:05:13.619Z,10.32
2022-08-29T20:07:21.604Z,9.52
2022-08-29T20:09:29.928Z,9.07
2022-08-29T20:11:43.636Z,10.65
2022-08-29T20:13:52.884Z,16.85
2022-08-29T20:16:00.691Z,19.60
2022-08-29T20:18:08.073Z,19.83
2022-08-29T20:20:20.978Z,18.23
2022-08-29T20:22:30.721Z,17.48
2022-08-29T20:24:38.156Z,15.82
2022-08-29T20:26:45.548Z,13.93
2022-08-29T20:28:55.283Z,12.75
2022-08-29T20:31:02.914Z,10.73
2022-08-29T20:33:11.871Z,10.30
2022-08-29T20:35:41.365Z,10.15
2022-08-29T20:37:47.113Z,9.88
2022-08-29T20:39:55.421Z,9.85
2022-08-29T20:42:04.282Z,9.55
2022-08-29T20:44:18.887Z,10.35
2022-08-29T20:46:26.154Z,10.13
2022-08-29T20:48:33.467Z,10.18
2022-08-29T20:50:42.545Z,10.68
2022-08-29T20:52:51.560Z,9.63
2022-08-29T20:54:58.881Z,10.55
2022-08-29T20:57:07.713Z,9.85
2022-08-29T20:59:17.503Z,10.32
2022-08-29T21:01:24.740Z,8.95
2022-08-29T21:03:48.511Z,9.15
2022-08-29T21:05:59.386Z,9.50
2022-08-29T21:08:06.812Z,8.85
2022-08-29T21:10:16.258Z,9.18
2022-08-29T21:12:27.370Z,9.15
2022-08-29T21:14:34.770Z,8.57
2022-08-29T21:16:41.788Z,9.30
2022-08-29T21:18:48.973Z,11.07
2022-08-29T21:20:58.096Z,10.60
2022-08-29T21:23:08.146Z,10.05
2022-08-29T21:25:15.326Z,11.57
2022-08-29T21:27:22.300Z,10.77
2022-08-29T21:29:29.284Z,9.75
2022-08-29T21:31:37.223Z,9.75
2022-08-29T21:33:45.957Z,9.07
2022-08-29T21:35:53.082Z,9.27
2022-08-29T21:38:01.858Z,8.15
2022-08-29T21:40:10.702Z,7.43
2022-08-29T21:42:17.798Z,7.32
2022-08-29T21:44:24.833Z,7.20
2022-08-29T21:46:34.006Z,6.57
2022-08-29T21:48:42.568Z,6.75
2022-08-29T21:50:49.708Z,7.32
2022-08-29T21:52:57.185Z,6.55
2022-08-29T21:55:07.195Z,6.65
2022-08-29T21:57:18.414Z,6.18
2022-08-29T21:59:26.215Z,6.65
2022-08-29T22:01:39.823Z,6.53
2022-08-29T22:03:50.390Z,7.35
2022-08-29T22:05:57.788Z,7.20
2022-08-29T22:08:05.323Z,7.75
2022-08-29T22:10:16.349Z,8.77
2022-08-29T22:12:23.273Z,9.15
2022-08-29T22:14:43.921Z,8.18
2022-08-29T22:16:52.022Z,7.72
2022-08-29T22:19:02.847Z,7.50
2022-08-29T22:21:13.447Z,6.95
2022-08-29T22:23:22.379Z,6.82
2022-08-29T22:25:31.295Z,7.50
2022-08-29T22:27:38.887Z,7.82
2022-08-29T22:29:46.173Z,7.63
2022-08-29T22:31:53.815Z,8.43
2022-08-29T22:34:00.852Z,8.23
2022-08-29T22:36:08.639Z,7.97
2022-08-29T22:38:15.677Z,7.10
2022-08-29T22:40:23.435Z,7.05
2022-08-29T22:42:33.157Z,6.90
2022-08-29T22:45:02.852Z,7.13
2022-08-29T22:47:08.096Z,6.80
2022-08-29T22:49:15.587Z,6.35
2022-08-29T22:51:24.257Z,6.10
2022-08-29T22:53:31.897Z,6.15
2022-08-29T22:55:39.040Z,5.57
2022-08-29T22:57:47.951Z,5.68
2022-08-29T22:59:54.929Z,5.72
2022-08-29T23:02:02.681Z,6.55
2022-08-29T23:04:10.989Z,7.00
2022-08-29T23:06:18.209Z,8.50
2022-08-29T23:08:25.096Z,9.48
2022-08-29T23:10:33.148Z,8.98
2022-08-29T23:12:40.677Z,8.88
2022-08-29T23:14:49.963Z,10.10
2022-08-29T23:16:56.935Z,11.45
2022-08-29T23:19:04.890Z,10.25
2022-08-29T23:21:12.069Z,8.13
2022-08-29T23:23:19.299Z,6.80
2022-08-29T23:25:26.633Z,7.55
2022-08-29T23:27:35.192Z,7.68
2022-08-29T23:29:42.489Z,7.63
2022-08-29T23:31:51.924Z,6.55
2022-08-29T23:33:58.957Z,5.82
2022-08-29T23:36:06.089Z,5.78
2022-08-29T23:38:13.308Z,5.55
2022-08-29T23:40:22.291Z,5.57
2022-08-29T23:42:29.259Z,4.63
2022-08-29T23:44:36.957Z,4.47
2022-08-29T23:46:44.105Z,4.60
2022-08-29T23:48:52.859Z,5.07
2022-08-29T23:50:59.995Z,5.00
2022-08-29T23:53:07.215Z,4.78
2022-08-29T23:55:16.560Z,4.70
2022-08-29T23:57:23.893Z,4.97
2022-08-29T23:59:47.296Z,4.28
